createdAt,value
2024-01-28T00:02:06.101Z,37.50
2024-01-28T00:04:32.918Z,37.59
2024-01-28T00:06:59.734Z,37.47
2024-01-28T00:09:26.568Z,37.66
2024-01-28T00:11:53.311Z,37.23
2024-01-28T00:14:20.062Z,37.40
2024-01-28T00:16:46.706Z,37.29
2024-01-28T00:19:13.506Z,37.46
2024-01-28T00:21:40.250Z,37.13
2024-01-28T00:24:08.124Z,36.99
2024-01-28T00:26:39.036Z,37.17
2024-01-28T00:29:05.854Z,37.25
2024-01-28T00:31:32.685Z,37.21
2024-01-28T00:34:00.075Z,37.27
2024-01-28T00:36:26.798Z,36.94
2024-01-28T00:38:54.762Z,36.88
2024-01-28T00:41:27.432Z,37.06
2024-01-28T00:43:54.163Z,36.87
2024-01-28T00:46:26.447Z,37.04
2024-01-28T00:48:53.659Z,36.89
2024-01-28T00:51:20.525Z,36.73
2024-01-28T00:53:47.267Z,36.42
2024-01-28T00:56:17.589Z,36.75
2024-01-28T00:58:45.082Z,36.76
2024-01-28T01:01:11.966Z,36.73
2024-01-28T01:03:38.975Z,36.71
2024-01-28T01:06:08.969Z,36.77
2024-01-28T01:08:35.776Z,36.69
2024-01-28T01:11:04.927Z,36.61
2024-01-28T01:13:33.217Z,36.72
2024-01-28T01:16:00.427Z,36.67
2024-01-28T01:18:27.390Z,36.65
2024-01-28T01:20:54.243Z,36.89
2024-01-28T01:23:20.928Z,36.68
2024-01-28T01:25:47.649Z,36.69
2024-01-28T01:28:14.603Z,36.56
2024-01-28T01:30:41.768Z,36.47
2024-01-28T01:33:08.715Z,36.76
2024-01-28T01:35:35.507Z,36.78
2024-01-28T01:38:02.486Z,36.52
2024-01-28T01:40:29.174Z,36.78
2024-01-28T01:42:55.827Z,36.57
2024-01-28T01:45:22.436Z,36.41
2024-01-28T01:47:49.355Z,36.74
2024-01-28T01:50:16.203Z,36.65
2024-01-28T01:52:45.809Z,36.54
2024-01-28T01:55:13.350Z,36.56
2024-01-28T01:57:43.299Z,36.67
2024-01-28T02:00:15.900Z,36.52
2024-01-28T02:02:47.104Z,36.47
2024-01-28T02:05:14.487Z,36.58
2024-01-28T02:07:41.229Z,36.48
2024-01-28T02:10:08.489Z,36.53
2024-01-28T02:12:35.075Z,36.34
2024-01-28T02:15:06.179Z,36.43
2024-01-28T02:17:33.403Z,36.42
2024-01-28T02:20:00.541Z,36.41
2024-01-28T02:22:27.307Z,36.64
2024-01-28T02:24:54.580Z,36.50
2024-01-28T02:27:21.407Z,36.26
2024-01-28T02:29:48.157Z,36.57
2024-01-28T02:32:17.413Z,36.50
2024-01-28T02:34:44.796Z,36.43
2024-01-28T02:37:12.356Z,36.51
2024-01-28T02:39:40.098Z,36.30
2024-01-28T02:42:07.492Z,36.34
2024-01-28T02:44:34.270Z,36.24
2024-01-28T02:47:03.944Z,36.37
2024-01-28T02:49:30.745Z,36.45
2024-01-28T02:51:57.679Z,36.39
2024-01-28T02:54:24.759Z,36.45
2024-01-28T02:56:53.348Z,36.26
2024-01-28T02:59:20.100Z,36.29
2024-01-28T03:01:48.111Z,36.46
2024-01-28T03:04:15.373Z,36.39
2024-01-28T03:06:42.931Z,36.44
2024-01-28T03:09:10.119Z,36.21
2024-01-28T03:11:37.030Z,36.29
2024-01-28T03:14:03.653Z,36.32
2024-01-28T03:16:30.461Z,36.51
2024-01-28T03:18:57.383Z,36.29
2024-01-28T03:21:24.297Z,36.32
2024-01-28T03:23:51.010Z,36.41
2024-01-28T03:26:20.620Z,36.39
2024-01-28T03:28:47.364Z,36.47
2024-01-28T03:31:14.511Z,36.38
2024-01-28T03:33:41.954Z,36.23
2024-01-28T03:36:09.235Z,36.23
2024-01-28T03:38:35.973Z,36.41
2024-01-28T03:41:02.950Z,36.26
2024-01-28T03:43:29.723Z,36.45
2024-01-28T03:45:56.426Z,36.30
2024-01-28T03:48:23.337Z,36.38
2024-01-28T03:50:50.093Z,36.32
2024-01-28T03:53:17.087Z,36.05
2024-01-28T03:55:44.869Z,36.27
2024-01-28T03:58:12.132Z,36.39
2024-01-28T04:00:39.205Z,36.18
2024-01-28T04:03:06.419Z,36.13
2024-01-28T04:05:34.178Z,36.13
2024-01-28T04:08:02.132Z,36.38
2024-01-28T04:10:29.195Z,36.34
2024-01-28T04:12:56.032Z,36.23
2024-01-28T04:15:23.010Z,36.26
2024-01-28T04:17:49.795Z,36.39
2024-01-28T04:20:16.770Z,36.19
2024-01-28T04:22:43.576Z,36.29
2024-01-28T04:25:10.600Z,36.28
2024-01-28T04:27:37.274Z,36.28
2024-01-28T04:30:06.156Z,36.34
2024-01-28T04:32:32.779Z,36.12
2024-01-28T04:34:59.517Z,36.33
2024-01-28T04:37:27.441Z,36.13
2024-01-28T04:39:57.334Z,36.25
2024-01-28T04:42:24.366Z,36.23
2024-01-28T04:44:51.526Z,36.19
2024-01-28T04:47:18.244Z,36.33
2024-01-28T04:49:46.272Z,36.10
2024-01-28T04:52:13.320Z,36.18
2024-01-28T04:54:41.828Z,36.23
2024-01-28T04:57:08.730Z,36.26
2024-01-28T04:59:35.627Z,36.27
2024-01-28T05:02:02.420Z,36.19
2024-01-28T05:04:29.379Z,36.31
2024-01-28T05:06:56.158Z,36.15
2024-01-28T05:09:23.486Z,36.36
2024-01-28T05:11:50.707Z,36.00
2024-01-28T05:14:17.625Z,36.39
2024-01-28T05:16:49.125Z,36.21
2024-01-28T05:19:16.149Z,36.28
2024-01-28T05:21:43.080Z,36.37
2024-01-28T05:24:10.224Z,36.30
2024-01-28T05:26:38.398Z,36.28
2024-01-28T05:29:07.656Z,36.18
2024-01-28T05:31:34.729Z,36.28
2024-01-28T05:34:02.505Z,36.47
2024-01-28T05:36:30.165Z,36.24
2024-01-28T05:38:57.080Z,36.26
2024-01-28T05:41:23.697Z,36.36
2024-01-28T05:43:50.449Z,36.22
2024-01-28T05:46:17.269Z,36.35
2024-01-28T05:48:44.123Z,36.38
2024-01-28T05:51:11.018Z,36.40
2024-01-28T05:53:37.896Z,36.50
2024-01-28T05:56:05.265Z,36.28
2024-01-28T05:58:31.975Z,36.51
2024-01-28T06:01:02.815Z,36.47
2024-01-28T06:03:30.080Z,36.35
2024-01-28T06:05:56.720Z,36.60
2024-01-28T06:08:24.309Z,36.43
2024-01-28T06:10:50.931Z,36.31
2024-01-28T06:13:17.782Z,36.32
2024-01-28T06:15:44.615Z,36.37
2024-01-28T06:18:11.301Z,36.30
2024-01-28T06:20:37.980Z,36.37
2024-01-28T06:23:04.972Z,36.62
2024-01-28T06:25:31.561Z,36.75
2024-01-28T06:27:58.168Z,36.69
2024-01-28T06:30:25.051Z,36.53
2024-01-28T06:32:51.813Z,36.50
2024-01-28T06:35:19.086Z,36.17
2024-01-28T06:37:45.941Z,36.25
2024-01-28T06:40:13.847Z,36.20
2024-01-28T06:42:40.589Z,36.34
2024-01-28T06:45:09.441Z,36.22
2024-01-28T06:47:36.395Z,36.43
2024-01-28T06:50:03.694Z,36.54
2024-01-28T06:52:30.590Z,36.27
2024-01-28T06:54:57.473Z,36.32
2024-01-28T06:57:24.277Z,36.24
2024-01-28T06:59:51.001Z,36.29
2024-01-28T07:02:17.739Z,36.49
2024-01-28T07:04:44.496Z,36.49
2024-01-28T07:07:11.330Z,36.28
2024-01-28T07:09:38.030Z,36.41
2024-01-28T07:12:07.047Z,36.46
2024-01-28T07:14:33.820Z,36.43
2024-01-28T07:17:00.868Z,36.13
2024-01-28T07:19:28.126Z,36.21
2024-01-28T07:21:55.042Z,36.43
2024-01-28T07:24:21.809Z,36.58
2024-01-28T07:26:48.463Z,36.31
2024-01-28T07:29:15.196Z,36.27
2024-01-28T07:31:41.916Z,36.49
2024-01-28T07:34:08.662Z,36.20
2024-01-28T07:36:38.644Z,36.16
2024-01-28T07:39:08.049Z,36.39
2024-01-28T07:41:37.210Z,36.33
2024-01-28T07:44:04.316Z,36.29
2024-01-28T07:46:31.008Z,36.50
2024-01-28T07:48:57.928Z,36.00
2024-01-28T07:51:24.754Z,36.21
2024-01-28T07:53:51.612Z,36.17
2024-01-28T07:56:18.326Z,36.12
2024-01-28T07:58:45.209Z,36.48
2024-01-28T08:01:12.038Z,36.26
2024-01-28T08:03:39.568Z,36.41
2024-01-28T08:06:08.808Z,36.22
2024-01-28T08:08:35.541Z,36.18
2024-01-28T08:11:02.987Z,36.67
2024-01-28T08:13:29.747Z,37.08
2024-01-28T08:16:03.147Z,37.64
2024-01-28T08:18:30.258Z,38.92
2024-01-28T08:20:57.490Z,39.17
2024-01-28T08:23:24.523Z,39.48
2024-01-28T08:25:51.286Z,40.00
2024-01-28T08:28:18.205Z,40.26
2024-01-28T08:30:46.080Z,40.93
2024-01-28T08:33:13.229Z,41.08
2024-01-28T08:35:42.594Z,40.97
2024-01-28T08:38:09.674Z,41.17
2024-01-28T08:40:36.453Z,41.46
2024-01-28T08:43:05.760Z,41.55
2024-01-28T08:45:33.194Z,41.43
2024-01-28T08:48:01.111Z,41.42
2024-01-28T08:50:27.813Z,41.66
2024-01-28T08:52:54.481Z,41.67
2024-01-28T08:55:21.055Z,41.81
2024-01-28T08:57:47.957Z,41.48
2024-01-28T09:00:15.452Z,41.59
2024-01-28T09:02:42.424Z,41.98
2024-01-28T09:05:09.593Z,41.99
2024-01-28T09:07:36.588Z,41.67
2024-01-28T09:10:03.706Z,41.74
2024-01-28T09:12:30.366Z,41.34
2024-01-28T09:14:57.070Z,41.04
2024-01-28T09:17:23.787Z,41.09
2024-01-28T09:19:50.367Z,40.83
2024-01-28T09:22:17.184Z,40.75
2024-01-28T09:24:43.901Z,40.72
2024-01-28T09:27:11.613Z,40.96
2024-01-28T09:29:39.564Z,40.65
2024-01-28T09:32:06.545Z,40.85
2024-01-28T09:34:33.287Z,40.94
2024-01-28T09:37:00.135Z,40.92
2024-01-28T09:39:26.999Z,40.72
2024-01-28T09:42:01.962Z,40.90
2024-01-28T09:44:28.676Z,40.75
2024-01-28T09:46:55.593Z,40.72
2024-01-28T09:49:23.930Z,40.31
2024-01-28T09:51:50.838Z,40.59
2024-01-28T09:54:18.531Z,40.37
2024-01-28T09:56:46.771Z,40.60
2024-01-28T09:59:16.718Z,40.17
2024-01-28T10:01:44.098Z,40.07
2024-01-28T10:04:12.090Z,40.08
2024-01-28T10:06:39.038Z,40.20
2024-01-28T10:09:06.484Z,40.05
2024-01-28T10:11:34.304Z,39.86
2024-01-28T10:14:00.890Z,39.83
2024-01-28T10:16:31.933Z,39.54
2024-01-28T10:18:59.021Z,39.55
2024-01-28T10:21:26.337Z,39.19
2024-01-28T10:23:54.469Z,39.55
2024-01-28T10:26:21.838Z,39.85
2024-01-28T10:28:48.476Z,39.91
2024-01-28T10:31:15.167Z,40.07
2024-01-28T10:33:42.063Z,40.16
2024-01-28T10:36:10.611Z,39.93
2024-01-28T10:38:44.616Z,39.93
2024-01-28T10:41:16.520Z,40.06
2024-01-28T10:43:51.144Z,40.50
2024-01-28T10:46:26.891Z,40.71
2024-01-28T10:48:59.121Z,40.60
2024-01-28T10:51:26.170Z,40.87
2024-01-28T10:53:53.495Z,41.43
2024-01-28T10:56:20.726Z,41.73
2024-01-28T10:58:47.479Z,41.48
2024-01-28T11:01:14.817Z,41.39
2024-01-28T11:03:41.708Z,41.45
2024-01-28T11:06:08.587Z,41.07
2024-01-28T11:08:36.033Z,40.89
2024-01-28T11:11:02.865Z,40.82
2024-01-28T11:13:29.560Z,40.67
2024-01-28T11:15:56.603Z,40.37
2024-01-28T11:18:33.394Z,40.41
2024-01-28T11:21:12.671Z,40.17
2024-01-28T11:23:44.515Z,40.23
2024-01-28T11:26:19.024Z,39.88
2024-01-28T11:28:53.883Z,39.89
2024-01-28T11:31:33.619Z,39.67
2024-01-28T11:34:21.178Z,39.72
2024-01-28T11:36:55.389Z,39.59
2024-01-28T11:39:49.673Z,39.31
2024-01-28T11:42:16.541Z,39.30
2024-01-28T11:44:47.701Z,39.43
2024-01-28T11:47:18.634Z,39.44
2024-01-28T11:49:45.888Z,39.36
2024-01-28T11:52:13.225Z,39.16
2024-01-28T11:54:40.319Z,39.07
2024-01-28T11:57:07.284Z,38.96
2024-01-28T11:59:35.387Z,39.02
2024-01-28T12:02:06.002Z,38.96
2024-01-28T12:04:32.740Z,38.74
2024-01-28T12:07:00.903Z,38.96
2024-01-28T12:09:31.322Z,38.60
2024-01-28T12:11:58.385Z,38.73
2024-01-28T12:14:25.373Z,39.22
2024-01-28T12:16:52.137Z,40.09
2024-01-28T12:19:19.433Z,40.48
2024-01-28T12:21:48.400Z,40.71
2024-01-28T12:24:15.480Z,41.06
2024-01-28T12:26:44.894Z,40.89
2024-01-28T12:29:11.986Z,41.25
2024-01-28T12:31:39.082Z,41.32
2024-01-28T12:34:16.160Z,41.51
2024-01-28T12:36:43.120Z,41.51
2024-01-28T12:39:09.868Z,41.16
2024-01-28T12:41:36.887Z,41.52
2024-01-28T12:44:04.899Z,41.69
2024-01-28T12:46:33.096Z,41.51
2024-01-28T12:49:00.647Z,41.56
2024-01-28T12:51:27.740Z,41.55
2024-01-28T12:53:54.713Z,41.65
2024-01-28T12:56:21.547Z,41.76
2024-01-28T12:58:48.431Z,42.04
2024-01-28T13:03:41.050Z,42.04
2024-01-28T13:06:08.945Z,42.14
2024-01-28T13:08:36.312Z,42.01
2024-01-28T13:11:05.290Z,41.89
2024-01-28T13:13:34.977Z,42.02
2024-01-28T13:16:02.115Z,42.04
2024-01-28T13:18:34.054Z,42.25
2024-01-28T13:21:02.927Z,42.40
2024-01-28T13:23:29.639Z,42.29
2024-01-28T13:25:56.356Z,42.05
2024-01-28T13:28:23.167Z,42.18
2024-01-28T13:30:50.119Z,42.46
2024-01-28T13:33:16.981Z,42.37
2024-01-28T13:35:44.032Z,42.28
2024-01-28T13:38:10.677Z,42.36
2024-01-28T13:40:37.463Z,42.53
2024-01-28T13:43:04.577Z,42.52
2024-01-28T13:45:31.381Z,42.42
2024-01-28T13:47:58.243Z,41.63
2024-01-28T13:50:25.038Z,41.35
2024-01-28T13:52:51.715Z,41.34
2024-01-28T13:55:18.516Z,41.55
2024-01-28T13:57:45.306Z,41.52
2024-01-28T14:00:12.874Z,41.10
2024-01-28T14:02:41.810Z,40.87
2024-01-28T14:05:11.723Z,41.19
2024-01-28T14:07:38.954Z,40.90
2024-01-28T14:10:06.268Z,41.12
2024-01-28T14:12:33.175Z,40.67
2024-01-28T14:15:00.230Z,41.03
2024-01-28T14:17:27.043Z,40.92
2024-01-28T14:19:53.914Z,41.26
2024-01-28T14:22:20.589Z,40.84
2024-01-28T14:24:47.547Z,40.96
2024-01-28T14:27:14.565Z,40.65
2024-01-28T14:29:41.443Z,40.80
2024-01-28T14:32:08.276Z,40.56
2024-01-28T14:34:35.276Z,40.20
2024-01-28T14:37:02.628Z,40.21
2024-01-28T14:39:31.618Z,40.16
2024-01-28T14:42:03.303Z,39.94
2024-01-28T14:44:30.102Z,40.09
2024-01-28T14:47:00.430Z,40.02
2024-01-28T14:49:28.096Z,39.50
2024-01-28T14:51:55.264Z,39.63
2024-01-28T14:54:22.145Z,40.05
2024-01-28T14:56:49.085Z,39.66
2024-01-28T14:59:15.722Z,39.45
2024-01-28T15:01:42.426Z,39.46
2024-01-28T15:04:09.359Z,39.14
2024-01-28T15:06:36.298Z,39.32
2024-01-28T15:09:05.863Z,39.01
2024-01-28T15:11:36.046Z,39.04
2024-01-28T15:14:03.275Z,38.93
2024-01-28T15:16:30.209Z,39.17
2024-01-28T15:18:57.522Z,39.02
2024-01-28T15:21:27.070Z,38.82
2024-01-28T15:23:53.858Z,38.85
2024-01-28T15:26:21.273Z,38.90
2024-01-28T15:28:48.065Z,38.73
2024-01-28T15:31:14.869Z,38.91
2024-01-28T15:33:41.946Z,38.98
2024-01-28T15:36:12.531Z,38.73
2024-01-28T15:38:43.479Z,38.46
2024-01-28T15:41:11.769Z,38.44
2024-01-28T15:43:38.491Z,38.63
2024-01-28T15:46:08.470Z,38.52
2024-01-28T15:48:36.776Z,38.73
2024-01-28T15:51:05.150Z,38.76
2024-01-28T15:53:32.382Z,38.50
2024-01-28T15:55:59.465Z,38.66
2024-01-28T15:58:27.582Z,38.65
2024-01-28T16:00:54.401Z,38.73
2024-01-28T16:03:21.274Z,38.68
2024-01-28T16:05:48.020Z,38.36
2024-01-28T16:08:15.091Z,38.63
2024-01-28T16:10:42.016Z,38.46
2024-01-28T16:13:08.887Z,38.62
2024-01-28T16:15:35.799Z,38.23
2024-01-28T16:18:02.893Z,38.20
2024-01-28T16:20:29.917Z,38.12
2024-01-28T16:23:00.424Z,38.28
2024-01-28T16:25:29.529Z,38.28
2024-01-28T16:28:00.931Z,38.39
2024-01-28T16:30:28.922Z,38.94
2024-01-28T16:32:55.851Z,39.37
2024-01-28T16:35:22.959Z,39.71
2024-01-28T16:37:53.830Z,39.56
2024-01-28T16:40:21.058Z,39.77
2024-01-28T16:42:48.272Z,39.84
2024-01-28T16:45:17.574Z,39.64
2024-01-28T16:47:45.382Z,39.68
2024-01-28T16:50:13.986Z,39.58
2024-01-28T16:52:41.696Z,39.52
2024-01-28T16:55:09.075Z,39.68
2024-01-28T16:57:36.057Z,39.26
2024-01-28T17:00:03.662Z,39.35
2024-01-28T17:02:30.341Z,39.57
2024-01-28T17:05:00.400Z,39.40
2024-01-28T17:07:28.579Z,39.31
2024-01-28T17:09:55.400Z,39.32
2024-01-28T17:12:22.485Z,39.37
2024-01-28T17:14:49.420Z,39.56
2024-01-28T17:17:16.241Z,39.41
2024-01-28T17:19:42.984Z,39.07
2024-01-28T17:22:10.327Z,39.28
2024-01-28T17:24:37.529Z,39.12
2024-01-28T17:27:04.854Z,39.14
2024-01-28T17:29:31.625Z,39.35
2024-01-28T17:31:58.439Z,39.15
2024-01-28T17:34:25.253Z,39.47
2024-01-28T17:36:52.629Z,39.18
2024-01-28T17:39:19.432Z,39.53
2024-01-28T17:41:46.130Z,39.24
2024-01-28T17:44:15.087Z,39.06
2024-01-28T17:46:41.952Z,38.83
2024-01-28T17:49:08.883Z,38.50
2024-01-28T17:51:35.911Z,38.38
2024-01-28T17:54:02.812Z,38.06
2024-01-28T17:56:30.244Z,38.23
2024-01-28T17:58:57.093Z,37.93
2024-01-28T18:01:24.953Z,37.77
2024-01-28T18:03:51.880Z,38.00
2024-01-28T18:06:19.258Z,37.94
2024-01-28T18:08:46.159Z,37.69
2024-01-28T18:11:13.875Z,38.07
2024-01-28T18:13:41.364Z,37.89
2024-01-28T18:16:11.917Z,37.71
2024-01-28T18:18:38.797Z,37.90
2024-01-28T18:21:05.751Z,37.81
2024-01-28T18:23:32.591Z,37.72
2024-01-28T18:25:59.655Z,37.52
2024-01-28T18:28:26.824Z,37.78
2024-01-28T18:30:53.550Z,37.47
2024-01-28T18:33:20.452Z,37.43
2024-01-28T18:35:52.254Z,37.26
2024-01-28T18:38:19.549Z,37.50
2024-01-28T18:43:03.213Z,37.30
2024-01-28T18:45:29.965Z,37.64
2024-01-28T18:47:56.690Z,37.62
2024-01-28T18:50:23.661Z,37.65
2024-01-28T18:52:50.514Z,37.81
2024-01-28T18:55:17.247Z,37.01
2024-01-28T18:57:44.074Z,37.88
2024-01-28T19:00:15.025Z,37.80
2024-01-28T19:02:41.856Z,37.55
2024-01-28T19:05:09.013Z,37.61
2024-01-28T19:07:36.290Z,37.85
2024-01-28T19:10:03.307Z,37.63
2024-01-28T19:12:30.056Z,37.66
2024-01-28T19:14:57.558Z,37.80
2024-01-28T19:17:24.782Z,37.61
2024-01-28T19:19:51.468Z,37.89
2024-01-28T19:22:18.124Z,38.06
2024-01-28T19:24:45.377Z,37.94
2024-01-28T19:27:12.327Z,38.14
2024-01-28T19:29:40.301Z,38.07
2024-01-28T19:32:07.493Z,38.15
2024-01-28T19:34:34.432Z,38.20
2024-01-28T19:37:01.400Z,37.85
2024-01-28T19:39:34.192Z,38.13
2024-01-28T19:42:03.011Z,38.10
2024-01-28T19:44:30.440Z,38.17
2024-01-28T19:46:57.128Z,37.86
2024-01-28T19:49:24.018Z,38.08
2024-01-28T19:51:50.911Z,37.96
2024-01-28T19:54:21.876Z,38.31
2024-01-28T19:56:49.406Z,38.47
2024-01-28T19:59:16.062Z,38.81
2024-01-28T20:01:42.818Z,39.04
2024-01-28T20:04:09.708Z,39.11
2024-01-28T20:06:37.863Z,39.00
2024-01-28T20:09:05.902Z,39.05
2024-01-28T20:11:32.907Z,38.96
2024-01-28T20:13:59.697Z,38.85
2024-01-28T20:16:26.520Z,38.87
2024-01-28T20:18:53.453Z,38.91
2024-01-28T20:21:20.390Z,38.97
2024-01-28T20:23:48.035Z,39.10
2024-01-28T20:26:19.971Z,39.01
2024-01-28T20:28:47.136Z,38.74
2024-01-28T20:31:18.443Z,38.75
2024-01-28T20:33:45.385Z,38.85
2024-01-28T20:36:12.079Z,38.72
2024-01-28T20:38:38.826Z,38.82
2024-01-28T20:41:06.627Z,38.74
2024-01-28T20:43:33.334Z,38.76
2024-01-28T20:46:00.894Z,38.71
2024-01-28T20:48:28.806Z,38.90
2024-01-28T20:50:55.648Z,38.87
2024-01-28T20:53:22.619Z,38.74
2024-01-28T20:55:50.145Z,38.57
2024-01-28T20:58:16.909Z,39.09
2024-01-28T21:00:44.129Z,38.89
2024-01-28T21:03:11.356Z,39.68
2024-01-28T21:05:38.241Z,39.69
2024-01-28T21:08:05.365Z,39.41
2024-01-28T21:10:32.082Z,39.15
2024-01-28T21:12:59.033Z,39.04
2024-01-28T21:15:25.955Z,38.90
2024-01-28T21:17:55.370Z,38.86
2024-01-28T21:20:23.435Z,38.72
2024-01-28T21:22:50.407Z,39.24
2024-01-28T21:25:17.103Z,39.40
2024-01-28T21:27:46.804Z,39.11
2024-01-28T21:30:14.551Z,39.25
2024-01-28T21:32:41.502Z,39.03
2024-01-28T21:35:08.916Z,39.25
2024-01-28T21:37:35.637Z,39.31
2024-01-28T21:40:02.468Z,39.24
2024-01-28T21:42:29.274Z,39.17
2024-01-28T21:44:55.938Z,38.75
2024-01-28T21:47:22.611Z,38.62
2024-01-28T21:49:49.279Z,38.68
2024-01-28T21:52:16.060Z,38.39
2024-01-28T21:54:42.905Z,38.22
2024-01-28T21:57:09.629Z,38.43
2024-01-28T21:59:36.354Z,38.17
2024-01-28T22:02:02.958Z,38.10
2024-01-28T22:04:29.981Z,38.08
2024-01-28T22:06:56.907Z,38.31
2024-01-28T22:09:23.968Z,38.05
2024-01-28T22:11:50.611Z,37.71
2024-01-28T22:14:18.052Z,38.12
2024-01-28T22:16:44.728Z,38.12
2024-01-28T22:19:11.506Z,37.83
2024-01-28T22:21:38.275Z,38.06
2024-01-28T22:24:08.216Z,37.95
2024-01-28T22:26:34.995Z,37.80
2024-01-28T22:29:01.668Z,37.56
2024-01-28T22:31:28.770Z,37.78
2024-01-28T22:33:57.412Z,37.69
2024-01-28T22:36:24.724Z,37.72
2024-01-28T22:38:51.399Z,37.79
2024-01-28T22:41:18.072Z,37.52
2024-01-28T22:43:44.882Z,37.65
2024-01-28T22:46:11.921Z,37.66
2024-01-28T22:48:38.684Z,37.66
2024-01-28T22:51:06.348Z,37.70
2024-01-28T22:53:35.965Z,37.31
2024-01-28T22:56:04.689Z,37.50
2024-01-28T22:58:31.669Z,37.57
2024-01-28T23:01:04.334Z,37.47
2024-01-28T23:03:31.603Z,37.45
2024-01-28T23:05:58.703Z,37.43
2024-01-28T23:08:25.722Z,37.51
2024-01-28T23:10:52.870Z,37.27
2024-01-28T23:13:19.612Z,37.50
2024-01-28T23:15:46.303Z,37.48
2024-01-28T23:18:22.139Z,37.42
2024-01-28T23:20:53.000Z,37.25
2024-01-28T23:23:19.866Z,37.14
2024-01-28T23:25:46.485Z,37.33
2024-01-28T23:28:13.290Z,37.11
2024-01-28T23:30:40.001Z,37.34
2024-01-28T23:33:06.947Z,37.38
2024-01-28T23:35:33.987Z,37.06
2024-01-28T23:38:00.948Z,37.09
2024-01-28T23:40:28.318Z,37.26
2024-01-28T23:42:55.329Z,37.06
2024-01-28T23:45:22.001Z,37.18
2024-01-28T23:47:48.696Z,36.96
2024-01-28T23:50:15.930Z,36.96
2024-01-28T23:52:42.831Z,37.20
2024-01-28T23:55:10.426Z,37.19
2024-01-28T23:57:37.491Z,37.43
